Time;durP1;ratioP1;P1;durP2;ratioP2;P2;SDS_P1;SDS_P2;PMS_P1;PMS_P2;Temp;Humidity;BMP_temperature;BMP_pressure;BME280_temperature;BME280_humidity;BME280_pressure;Samples;Min_cycle;Max_cycle;Signal;HPM_P1;HPM_P2
2022/05/11 00:00:21;;;;;;;97.53;86.60;;;;;21.50;100294.00;;;;2070807;28;20209;-56
2022/05/11 00:01:21;;;;;;;87.90;75.80;;;;;21.50;100293.00;;;;2070962;28;20771;-56
2022/05/11 00:02:21;;;;;;;98.50;86.30;;;;;21.50;100288.00;;;;2070710;28;20705;-56
2022/05/11 00:03:22;;;;;;;82.67;73.50;;;;;21.50;100281.00;;;;2070692;28;20590;-57
2022/05/11 00:04:22;;;;;;;97.40;80.30;;;;;21.50;100285.00;;;;2070520;28;20252;-54
2022/05/11 00:05:22;;;;;;;76.13;66.70;;;;;21.30;100283.00;;;;2069974;28;20233;-52
2022/05/11 00:06:23;;;;;;;106.43;86.33;;;;;21.50;100289.00;;;;2070247;28;20222;-56
2022/05/11 00:07:24;;;;;;;81.80;71.73;;;;;21.50;100291.00;;;;2070154;28;20222;-55
2022/05/11 00:08:24;;;;;;;94.00;80.53;;;;;21.50;100304.00;;;;2075424;28;20209;-53
2022/05/11 00:09:24;;;;;;;81.70;70.83;;;;;21.50;100297.00;;;;2078806;28;20220;-56
2022/05/11 00:10:25;;;;;;;94.90;81.87;;;;;21.50;100297.00;;;;2072247;28;20210;-56
2022/05/11 00:11:27;;;;;;;90.57;79.47;;;;;21.50;100292.00;;;;2070716;28;20249;-56
2022/05/11 00:12:27;;;;;;;99.55;85.20;;;;;21.50;100292.00;;;;2070604;28;20572;-54
2022/05/11 00:13:28;;;;;;;74.87;66.67;;;;;21.50;100286.00;;;;2070742;28;20234;-53
2022/05/11 00:14:28;;;;;;;110.83;93.57;;;;;21.50;100291.00;;;;2069199;28;20318;-56
2022/05/11 00:15:29;;;;;;;111.67;94.73;;;;;21.50;100299.00;;;;2069387;28;20536;-55
2022/05/11 00:16:30;;;;;;;86.63;73.88;;;;;21.40;100280.00;;;;2070535;28;20321;-56
2022/05/11 00:17:30;;;;;;;108.53;91.43;;;;;21.50;100283.00;;;;2069864;28;20222;-58
2022/05/11 00:18:31;;;;;;;97.33;84.27;;;;;21.50;100283.00;;;;2069200;28;20826;-55
2022/05/11 00:19:31;;;;;;;107.27;91.63;;;;;21.50;100285.00;;;;2070500;28;20552;-55
2022/05/11 00:20:31;;;;;;;93.70;83.50;;;;;21.50;100280.00;;;;2068574;28;20219;-55
2022/05/11 00:21:32;;;;;;;69.13;61.63;;;;;21.50;100283.00;;;;2070920;28;20643;-54
2022/05/11 00:22:33;;;;;;;72.87;64.73;;;;;21.20;100280.00;;;;2070354;28;20217;-54
2022/05/11 00:23:33;;;;;;;90.63;80.60;;;;;21.50;100278.00;;;;2070671;28;20206;-54
2022/05/11 00:24:34;;;;;;;65.50;57.67;;;;;21.50;100277.00;;;;2068524;28;20764;-55
2022/05/11 00:25:34;;;;;;;83.17;70.90;;;;;21.50;100285.00;;;;2069093;28;20694;-55
2022/05/11 00:26:35;;;;;;;78.83;69.43;;;;;21.50;100273.00;;;;2070797;28;20206;-55
2022/05/11 00:27:35;;;;;;;67.27;59.50;;;;;21.50;100275.00;;;;2070565;28;20210;-55
2022/05/11 00:28:35;;;;;;;76.87;68.67;;;;;21.50;100277.00;;;;2070699;28;20206;-54
2022/05/11 00:29:36;;;;;;;81.70;70.70;;;;;21.50;100280.00;;;;2068704;28;20678;-54
2022/05/11 00:30:36;;;;;;;79.77;70.90;;;;;21.50;100273.00;;;;2069964;28;20210;-54
2022/05/11 00:31:36;;;;;;;79.73;68.57;;;;;21.50;100277.00;;;;2070639;28;20244;-53
2022/05/11 00:32:37;;;;;;;80.40;68.80;;;;;21.50;100266.00;;;;2070075;28;20238;-53
2022/05/11 00:33:37;;;;;;;72.47;63.33;;;;;21.50;100269.00;;;;2069360;28;20238;-55
2022/05/11 00:34:38;;;;;;;67.33;58.73;;;;;21.40;100260.00;;;;2070384;28;20210;-55
2022/05/11 00:35:39;;;;;;;75.50;66.67;;;;;21.50;100268.00;;;;2069594;28;20667;-54
2022/05/11 00:36:39;;;;;;;81.23;71.07;;;;;21.50;100255.00;;;;2061788;28;20210;-55
2022/05/11 00:37:39;;;;;;;72.63;64.63;;;;;21.50;100264.00;;;;2061568;28;20223;-55
2022/05/11 00:38:40;;;;;;;59.27;52.00;;;;;21.50;100262.00;;;;2070542;28;20297;-54
2022/05/11 00:39:40;;;;;;;92.60;80.33;;;;;21.50;100258.00;;;;2070572;28;20213;-54
2022/05/11 00:40:46;;;;;;;70.93;63.20;;;;;21.50;100256.00;;;;2070493;28;20214;-55
2022/05/11 00:41:46;;;;;;;84.95;74.32;;;;;21.50;100253.00;;;;2069932;28;21067;-54
2022/05/11 00:42:46;;;;;;;59.50;53.10;;;;;21.50;100248.00;;;;2069874;28;20210;-55
2022/05/11 00:43:58;;;;;;;52.83;47.20;;;;;21.40;100246.00;;;;2070682;28;20272;-54
2022/05/11 00:44:58;;;;;;;64.07;56.78;;;;;21.40;100242.00;;;;2075541;28;20648;-53
2022/05/11 00:46:20;;;;;;;60.90;54.37;;;;;21.40;100188.00;;;;2078036;28;20224;-54
2022/05/11 00:47:35;;;;;;;54.63;48.63;;;;;21.40;100248.00;;;;2078436;28;20214;-54
2022/05/11 00:49:59;;;;;;;64.72;57.67;;;;;21.40;100233.00;;;;2068670;28;20231;-53
2022/05/11 00:50:59;;;;;;;57.47;51.28;;;;;21.40;100238.00;;;;2069675;28;20295;-54
2022/05/11 00:52:12;;;;;;;85.87;73.87;;;;;21.40;100235.00;;;;2069149;28;20695;-54
2022/05/11 00:53:13;;;;;;;72.43;63.28;;;;;21.40;100231.00;;;;2068259;28;20245;-53
2022/05/11 00:54:14;;;;;;;72.60;64.10;;;;;21.40;100230.00;;;;2069602;28;20225;-54
2022/05/11 00:55:23;;;;;;;59.77;53.23;;;;;21.40;100224.00;;;;2076121;28;20487;-54
2022/05/11 00:56:23;;;;;;;59.80;53.38;;;;;21.40;100231.00;;;;2070199;28;20230;-53
2022/05/11 00:57:52;;;;;;;60.80;54.30;;;;;21.40;100203.00;;;;2068898;28;20218;-54
2022/05/11 00:58:56;;;;;;;66.13;58.92;;;;;21.40;100210.00;;;;2072811;28;20265;-55
2022/05/11 00:59:56;;;;;;;51.50;45.97;;;;;21.40;100229.00;;;;2068889;28;20225;-54
2022/05/11 01:00:57;;;;;;;68.93;61.33;;;;;21.50;100239.00;;;;2069193;28;20277;-55
2022/05/11 01:01:59;;;;;;;59.47;52.97;;;;;21.50;100233.00;;;;2068678;28;20222;-53
2022/05/11 01:03:01;;;;;;;56.50;49.47;;;;;21.50;100235.00;;;;2069590;28;20244;-54
2022/05/11 01:04:08;;;;;;;65.22;58.13;;;;;21.40;100237.00;;;;2069636;28;20220;-54
2022/05/11 01:05:08;;;;;;;52.70;47.10;;;;;21.40;100236.00;;;;2069936;28;20218;-55
2022/05/11 01:06:09;;;;;;;55.27;49.27;;;;;21.40;100236.00;;;;2077211;28;20215;-55
2022/05/11 01:07:11;;;;;;;53.30;47.70;;;;;21.40;100231.00;;;;2077744;28;20902;-54
2022/05/11 01:08:13;;;;;;;67.90;58.60;;;;;21.40;100218.00;;;;2069514;28;20703;-53
2022/05/11 01:09:13;;;;;;;66.28;56.50;;;;;21.40;100227.00;;;;2072574;28;20225;-54
2022/05/11 01:10:14;;;;;;;60.10;52.40;;;;;21.50;100232.00;;;;2069625;28;20686;-53
2022/05/11 01:11:14;;;;;;;61.70;53.53;;;;;21.50;100230.00;;;;2070455;28;20784;-53
2022/05/11 01:12:17;;;;;;;51.93;45.40;;;;;21.40;100230.00;;;;2069668;28;20246;-54
2022/05/11 01:13:17;;;;;;;53.40;47.92;;;;;21.40;100227.00;;;;2069531;28;20676;-52
2022/05/11 01:14:21;;;;;;;58.63;52.40;;;;;21.40;100225.00;;;;2069766;28;20210;-56
2022/05/11 01:15:21;;;;;;;48.85;43.63;;;;;21.40;100227.00;;;;2069060;28;20214;-52
2022/05/11 01:16:21;;;;;;;47.10;42.00;;;;;21.40;100226.00;;;;2061713;28;20211;-51
2022/05/11 01:17:24;;;;;;;54.17;48.50;;;;;21.40;100228.00;;;;2061494;28;20289;-54
2022/05/11 01:18:24;;;;;;;61.05;52.35;;;;;21.40;100222.00;;;;2061977;28;20207;-52
2022/05/11 01:19:28;;;;;;;49.67;43.67;;;;;21.40;100221.00;;;;2069666;28;20244;-52
2022/05/11 01:20:29;;;;;;;47.65;42.50;;;;;21.40;100202.00;;;;2069408;28;20218;-56
2022/05/11 01:22:05;;;;;;;44.08;39.45;;;;;21.40;100217.00;;;;2071819;28;20228;-52
2022/05/11 01:23:35;;;;;;;51.63;45.05;;;;;21.40;100221.00;;;;2057251;28;20704;-52
2022/05/11 01:24:39;;;;;;;48.95;43.60;;;;;21.40;100209.00;;;;2075125;28;20589;-53
2022/05/11 01:25:39;;;;;;;49.20;43.33;;;;;21.40;100211.00;;;;2076976;28;20217;-54
2022/05/11 01:26:39;;;;;;;52.67;45.00;;;;;21.40;100205.00;;;;2069661;28;20682;-52
2022/05/11 01:27:44;;;;;;;45.07;40.20;;;;;21.40;100203.00;;;;2069633;28;20244;-53
2022/05/11 01:28:46;;;;;;;54.72;48.88;;;;;21.50;100145.00;;;;2070270;28;20214;-55
2022/05/11 01:29:47;;;;;;;48.97;43.78;;;;;21.50;100198.00;;;;2070798;28;20217;-54
2022/05/11 01:30:49;;;;;;;44.90;40.17;;;;;21.40;100197.00;;;;2072073;28;20214;-57
2022/05/11 01:31:49;;;;;;;67.25;59.75;;;;;21.50;100194.00;;;;2072139;28;20666;-53
2022/05/11 01:32:51;;;;;;;51.27;45.80;;;;;21.40;100195.00;;;;2071988;28;20222;-53
2022/05/11 01:33:52;;;;;;;59.28;52.90;;;;;21.40;100199.00;;;;2078172;28;20317;-52
2022/05/11 01:34:57;;;;;;;42.00;37.53;;;;;21.50;100188.00;;;;2079514;28;20213;-52
2022/05/11 01:36:18;;;;;;;45.60;40.70;;;;;21.40;100193.00;;;;2070582;28;20225;-55
2022/05/11 01:37:18;;;;;;;56.17;50.00;;;;;21.40;100183.00;;;;2074265;28;20570;-54
2022/05/11 01:38:29;;;;;;;45.63;40.83;;;;;21.40;100193.00;;;;2071157;28;20233;-53
2022/05/11 01:39:29;;;;;;;49.15;43.92;;;;;21.40;100202.00;;;;2064601;28;20227;-55
2022/05/11 01:40:30;;;;;;;42.43;35.80;;;;;21.40;100186.00;;;;2071421;28;20214;-55
2022/05/11 01:41:32;;;;;;;44.50;39.90;;;;;21.40;100180.00;;;;2071697;28;20234;-54
2022/05/11 01:42:33;;;;;;;53.75;46.60;;;;;21.40;100193.00;;;;2072096;28;20304;-52
2022/05/11 01:43:35;;;;;;;41.80;37.27;;;;;21.40;100197.00;;;;2072010;28;20292;-52
2022/05/11 01:44:35;;;;;;;42.55;37.95;;;;;21.40;100185.00;;;;2070991;28;20222;-52
2022/05/11 01:45:35;;;;;;;41.17;36.90;;;;;21.40;100185.00;;;;2061207;28;20276;-55
2022/05/11 01:46:37;;;;;;;46.43;41.53;;;;;21.40;100186.00;;;;2075985;28;20241;-57
2022/05/11 01:47:38;;;;;;;44.17;39.38;;;;;21.40;100184.00;;;;2078221;28;20238;-58
2022/05/11 01:48:38;;;;;;;56.80;50.73;;;;;21.40;100182.00;;;;2079419;28;21094;-56
2022/05/11 01:49:39;;;;;;;46.60;41.80;;;;;21.40;100176.00;;;;2079822;28;20567;-54
2022/05/11 01:50:39;;;;;;;48.27;43.17;;;;;21.40;100172.00;;;;2080060;28;20214;-54
2022/05/11 01:51:39;;;;;;;49.70;42.80;;;;;21.40;100178.00;;;;2080058;28;20292;-54
2022/05/11 01:52:40;;;;;;;42.80;38.23;;;;;21.40;100173.00;;;;2079849;28;20216;-55
2022/05/11 01:53:40;;;;;;;43.27;38.70;;;;;21.40;100174.00;;;;2079858;28;20224;-57
2022/05/11 01:54:41;;;;;;;40.27;36.07;;;;;21.40;100178.00;;;;2079129;28;20229;-54
2022/05/11 01:55:41;;;;;;;38.57;34.57;;;;;21.40;100171.00;;;;2070529;28;20702;-55
2022/05/11 01:56:41;;;;;;;40.37;36.20;;;;;21.40;100165.00;;;;2077229;28;20252;-53
2022/05/11 01:57:42;;;;;;;51.57;45.23;;;;;21.40;100161.00;;;;2079512;28;20222;-53
2022/05/11 01:58:42;;;;;;;42.70;38.20;;;;;21.40;100164.00;;;;2079222;28;20341;-54
2022/05/11 01:59:42;;;;;;;42.23;37.83;;;;;21.40;100163.00;;;;2079313;28;21269;-56
2022/05/11 02:00:44;;;;;;;41.17;36.87;;;;;21.40;100160.00;;;;2080075;28;20308;-54
2022/05/11 02:01:44;;;;;;;49.05;43.80;;;;;21.40;100159.00;;;;2072784;28;20237;-58
2022/05/11 02:02:45;;;;;;;47.33;42.20;;;;;21.40;100161.00;;;;2070701;28;20218;-57
2022/05/11 02:03:45;;;;;;;57.43;51.33;;;;;21.40;100154.00;;;;2070920;28;20226;-54
2022/05/11 02:08:43;;;;;;;38.25;34.35;;;;;21.40;100186.00;;;;2078088;28;20248;-54
2022/05/11 02:09:44;;;;;;;44.77;40.03;;;;;21.40;100156.00;;;;2079332;28;20225;-54
2022/05/11 02:10:44;;;;;;;35.87;32.20;;;;;21.50;100156.00;;;;2079189;28;20221;-53
2022/05/11 02:11:45;;;;;;;41.10;36.73;;;;;21.40;100157.00;;;;2079978;28;20270;-55
2022/05/11 02:12:45;;;;;;;36.90;32.83;;;;;21.40;100152.00;;;;2079970;28;20217;-54
2022/05/11 02:13:46;;;;;;;42.07;37.57;;;;;21.40;100152.00;;;;2079641;28;20217;-53
2022/05/11 02:14:46;;;;;;;36.13;32.30;;;;;21.40;100154.00;;;;2076581;28;20267;-53
2022/05/11 02:15:46;;;;;;;41.63;37.10;;;;;21.40;100155.00;;;;2070877;28;20249;-53
2022/05/11 02:16:47;;;;;;;51.83;46.23;;;;;21.40;100158.00;;;;2069928;28;20218;-53
2022/05/11 02:17:47;;;;;;;36.20;32.37;;;;;21.40;100153.00;;;;2073927;28;20238;-55
2022/05/11 02:18:47;;;;;;;43.10;38.70;;;;;21.40;100151.00;;;;2079626;28;20227;-54
2022/05/11 02:19:48;;;;;;;38.40;34.50;;;;;21.40;100151.00;;;;2079855;28;20224;-55
2022/05/11 02:20:48;;;;;;;35.27;31.47;;;;;21.40;100148.00;;;;2080048;28;20234;-54
2022/05/11 02:21:48;;;;;;;38.93;34.77;;;;;21.40;100153.00;;;;2079234;28;20224;-54
2022/05/11 02:22:49;;;;;;;33.30;29.90;;;;;21.40;100152.00;;;;2076057;28;20210;-53
2022/05/11 02:23:50;;;;;;;33.30;29.90;;;;;21.40;100146.00;;;;2064135;28;20699;-57
2022/05/11 02:24:51;;;;;;;33.13;29.63;;;;;21.40;100150.00;;;;2071444;28;20246;-52
2022/05/11 02:25:51;;;;;;;46.33;41.40;;;;;21.40;100155.00;;;;2071007;28;20218;-53
2022/05/11 02:26:51;;;;;;;41.47;37.13;;;;;21.40;100155.00;;;;2071666;28;20222;-54
2022/05/11 02:27:52;;;;;;;41.67;37.47;;;;;21.40;100153.00;;;;2070996;28;20218;-54
2022/05/11 02:28:55;;;;;;;39.30;35.00;;;;;21.40;100151.00;;;;2067083;28;20320;-54
2022/05/11 02:29:55;;;;;;;37.55;33.60;;;;;21.40;100151.00;;;;2069480;28;20218;-54
2022/05/11 02:30:57;;;;;;;39.33;35.20;;;;;21.40;100154.00;;;;2071618;28;20221;-53
2022/05/11 02:31:57;;;;;;;38.58;34.55;;;;;21.40;100158.00;;;;2071716;28;20264;-54
2022/05/11 02:32:58;;;;;;;37.80;33.80;;;;;21.40;100148.00;;;;2076252;28;20294;-55
2022/05/11 02:33:58;;;;;;;37.10;33.10;;;;;21.40;100140.00;;;;2079736;28;20225;-54
2022/05/11 02:35:13;;;;;;;37.47;33.50;;;;;21.40;100149.00;;;;2079566;28;20304;-55
2022/05/11 02:36:14;;;;;;;30.65;27.52;;;;;21.40;100135.00;;;;2079080;28;20323;-53
2022/05/11 02:37:14;;;;;;;32.33;29.07;;;;;21.40;100144.00;;;;2079289;28;20217;-55
2022/05/11 02:38:23;;;;;;;33.17;29.57;;;;;21.40;100134.00;;;;2079784;28;20263;-55
2022/05/11 02:39:23;;;;;;;35.63;31.67;;;;;21.40;100138.00;;;;2079435;28;20222;-55
2022/05/11 02:40:26;;;;;;;30.87;27.90;;;;;21.40;100135.00;;;;2077851;28;20213;-56
2022/05/11 02:41:26;;;;;;;37.53;33.42;;;;;21.40;100136.00;;;;2076480;28;20649;-58
2022/05/11 02:42:26;;;;;;;33.17;29.70;;;;;21.40;100130.00;;;;2075265;28;20233;-54
2022/05/11 02:43:27;;;;;;;38.43;33.80;;;;;21.40;100138.00;;;;2076706;28;20210;-55
2022/05/11 02:44:27;;;;;;;40.93;36.43;;;;;21.40;100135.00;;;;2068528;28;20225;-56
2022/05/11 02:45:28;;;;;;;32.30;28.80;;;;;21.40;100137.00;;;;2070435;28;20305;-55
2022/05/11 02:46:29;;;;;;;29.92;26.75;;;;;21.40;100138.00;;;;2071130;28;20241;-52
2022/05/11 02:47:29;;;;;;;35.50;31.73;;;;;21.40;100131.00;;;;2071318;28;20207;-55
2022/05/11 02:48:32;;;;;;;30.40;27.30;;;;;21.40;100129.00;;;;2071237;28;20703;-57
2022/05/11 02:49:33;;;;;;;30.15;26.95;;;;;21.40;100145.00;;;;2070825;28;20210;-56
2022/05/11 02:50:38;;;;;;;30.47;27.37;;;;;21.40;100112.00;;;;2071668;28;20718;-54
2022/05/11 02:51:38;;;;;;;31.27;27.92;;;;;21.40;100129.00;;;;2070804;28;20214;-55
2022/05/11 02:52:39;;;;;;;41.90;37.63;;;;;21.40;100046.00;;;;2069632;28;20691;-56
2022/05/11 02:53:39;;;;;;;35.70;31.93;;;;;21.40;100129.00;;;;2075903;28;20543;-52
2022/05/11 02:54:43;;;;;;;35.10;31.47;;;;;21.40;100128.00;;;;2079555;28;20569;-55
2022/05/11 02:55:45;;;;;;;30.08;26.80;;;;;21.40;100129.00;;;;2078847;28;20213;-55
2022/05/11 02:56:46;;;;;;;27.98;25.05;;;;;21.40;100124.00;;;;2079603;28;20225;-55
2022/05/11 02:57:46;;;;;;;32.60;29.20;;;;;21.40;100126.00;;;;2079065;28;20320;-58
2022/05/11 02:58:47;;;;;;;30.00;26.87;;;;;21.50;100131.00;;;;2075394;28;20210;-58
2022/05/11 02:59:49;;;;;;;35.90;30.33;;;;;21.40;100131.00;;;;2071408;28;20233;-56
2022/05/11 03:00:49;;;;;;;35.45;31.23;;;;;21.50;100124.00;;;;2071274;28;20220;-58
2022/05/11 03:01:51;;;;;;;33.47;29.73;;;;;21.50;100121.00;;;;2070812;28;20217;-59
2022/05/11 03:02:51;;;;;;;42.35;37.75;;;;;21.50;100125.00;;;;2070271;28;20214;-59
2022/05/11 03:03:52;;;;;;;31.33;27.73;;;;;21.50;100127.00;;;;2071242;28;20234;-58
2022/05/11 03:04:52;;;;;;;34.63;28.90;;;;;21.50;100122.00;;;;2071307;28;20218;-58
2022/05/11 03:05:53;;;;;;;27.70;23.43;;;;;21.50;100124.00;;;;2070452;28;20225;-56
2022/05/11 03:06:53;;;;;;;38.10;34.00;;;;;21.50;100129.00;;;;2071242;28;20238;-56
2022/05/11 03:07:53;;;;;;;39.40;35.10;;;;;21.50;100127.00;;;;2071294;28;20687;-52
2022/05/11 03:08:54;;;;;;;32.00;28.40;;;;;21.50;100135.00;;;;2071759;28;20222;-53
2022/05/11 03:09:54;;;;;;;26.30;23.53;;;;;21.50;100125.00;;;;2079449;28;20224;-53
2022/05/11 03:10:55;;;;;;;31.93;25.43;;;;;21.40;100123.00;;;;2079459;28;20686;-53
2022/05/11 03:11:55;;;;;;;25.23;22.27;;;;;21.40;100127.00;;;;2079541;28;20218;-54
2022/05/11 03:12:56;;;;;;;28.10;23.00;;;;;21.40;100121.00;;;;2079245;28;20252;-54
2022/05/11 03:13:56;;;;;;;23.07;20.67;;;;;21.50;100038.00;;;;2078329;28;20376;-53
2022/05/11 03:14:57;;;;;;;23.90;21.40;;;;;21.50;100115.00;;;;2078693;28;20633;-54
2022/05/11 03:15:57;;;;;;;22.40;18.33;;;;;21.50;100119.00;;;;2078675;28;20213;-54
2022/05/11 03:16:58;;;;;;;22.47;20.10;;;;;21.60;100116.00;;;;2079300;28;20642;-54
2022/05/11 03:17:58;;;;;;;24.07;21.47;;;;;21.60;100113.00;;;;2076597;28;20631;-54
2022/05/11 03:19:01;;;;;;;24.43;21.93;;;;;21.60;100112.00;;;;2071170;28;20686;-54
2022/05/11 03:20:05;;;;;;;24.70;22.17;;;;;21.60;100115.00;;;;2070256;28;20498;-53
2022/05/11 03:21:05;;;;;;;21.48;19.17;;;;;21.60;100112.00;;;;2071057;28;20238;-53
2022/05/11 03:22:06;;;;;;;22.07;19.70;;;;;21.50;100104.00;;;;2071296;28;20218;-53
2022/05/11 03:23:06;;;;;;;23.10;20.60;;;;;21.50;100104.00;;;;2071334;28;20578;-53
2022/05/11 03:24:07;;;;;;;20.37;18.13;;;;;21.50;100094.00;;;;2070912;28;20644;-53
2022/05/11 03:25:07;;;;;;;23.40;19.00;;;;;21.40;100099.00;;;;2070897;28;20651;-53
2022/05/11 03:26:08;;;;;;;19.57;16.70;;;;;21.40;100101.00;;;;2070413;28;20264;-54
2022/05/11 03:27:08;;;;;;;17.33;15.57;;;;;21.40;100093.00;;;;2071140;28;20213;-54
2022/05/11 03:28:08;;;;;;;18.63;15.73;;;;;21.40;100095.00;;;;2069295;28;20745;-53
2022/05/11 03:29:09;;;;;;;17.67;15.77;;;;;21.40;100093.00;;;;2071247;28;20206;-53
2022/05/11 03:30:10;;;;;;;17.20;15.40;;;;;21.50;100095.00;;;;2071167;28;20206;-53
2022/05/11 03:31:10;;;;;;;19.53;15.50;;;;;21.50;100098.00;;;;2073397;28;20256;-56
2022/05/11 03:34:49;;;;;;;17.27;14.82;;;;;21.40;100085.00;;;;2072434;28;20594;-53
2022/05/11 03:35:49;;;;;;;14.43;13.00;;;;;21.40;100082.00;;;;2070392;28;20222;-55
2022/05/11 03:36:49;;;;;;;14.83;13.23;;;;;21.40;100085.00;;;;2070945;28;20222;-54
2022/05/11 03:37:50;;;;;;;14.20;12.30;;;;;21.40;100085.00;;;;2071267;28;20624;-54
2022/05/11 03:38:50;;;;;;;15.53;12.93;;;;;21.40;100081.00;;;;2071119;28;20608;-55
2022/05/11 03:39:51;;;;;;;15.10;13.60;;;;;21.40;100082.00;;;;2071145;28;20265;-56
2022/05/11 03:40:51;;;;;;;16.10;14.20;;;;;21.40;100081.00;;;;2070448;28;20227;-56
2022/05/11 03:41:51;;;;;;;16.53;14.30;;;;;21.50;100085.00;;;;2068355;28;21247;-56
2022/05/11 03:42:52;;;;;;;14.27;12.77;;;;;21.50;100085.00;;;;2071233;28;20225;-52
2022/05/11 03:43:52;;;;;;;14.57;12.73;;;;;21.50;100077.00;;;;2068824;28;20313;-55
2022/05/11 03:44:53;;;;;;;13.87;12.47;;;;;21.50;100073.00;;;;2069149;28;20348;-55
2022/05/11 03:45:54;;;;;;;14.30;12.90;;;;;21.50;100086.00;;;;2070436;28;20226;-56
2022/05/11 03:46:54;;;;;;;13.83;12.53;;;;;21.50;100081.00;;;;2075746;28;20456;-54
2022/05/11 03:47:55;;;;;;;13.67;11.57;;;;;21.50;100077.00;;;;2078378;28;20213;-54
2022/05/11 03:48:56;;;;;;;14.20;12.40;;;;;21.50;100077.00;;;;2074852;28;20230;-56
2022/05/11 03:49:56;;;;;;;13.00;11.60;;;;;21.50;100077.00;;;;2070961;28;20507;-54
2022/05/11 03:50:56;;;;;;;15.27;12.43;;;;;21.50;100074.00;;;;2068534;28;20218;-53
2022/05/11 03:51:57;;;;;;;15.50;10.50;;;;;21.50;100073.00;;;;2070360;28;20687;-55
2022/05/11 03:52:57;;;;;;;14.93;12.10;;;;;21.50;100081.00;;;;2070290;28;20975;-52
2022/05/11 03:53:58;;;;;;;13.83;12.33;;;;;21.50;100078.00;;;;2069973;28;20868;-55
2022/05/11 03:54:58;;;;;;;13.07;11.80;;;;;21.50;100080.00;;;;2070446;28;20249;-54
2022/05/11 03:55:58;;;;;;;12.93;11.63;;;;;21.50;100073.00;;;;2068835;28;20625;-55
2022/05/11 03:56:59;;;;;;;14.57;12.20;;;;;21.50;100083.00;;;;2069701;28;20667;-57
2022/05/11 03:58:00;;;;;;;13.83;12.43;;;;;21.50;100078.00;;;;2074932;28;20240;-53
2022/05/11 03:59:01;;;;;;;17.88;15.05;;;;;21.50;100074.00;;;;2079029;28;20232;-55
2022/05/11 04:00:01;;;;;;;18.30;16.33;;;;;21.50;100074.00;;;;2079154;28;20213;-54
2022/05/11 04:01:02;;;;;;;23.80;19.63;;;;;21.50;100077.00;;;;2078486;28;20286;-53
2022/05/11 04:02:02;;;;;;;22.10;19.40;;;;;21.50;100065.00;;;;2078936;28;20217;-53
2022/05/11 04:03:03;;;;;;;31.00;23.27;;;;;21.50;99923.00;;;;2079033;28;20213;-54
2022/05/11 04:04:03;;;;;;;31.50;24.27;;;;;21.50;100062.00;;;;2077793;28;20241;-55
2022/05/11 04:05:04;;;;;;;30.83;22.03;;;;;21.50;100067.00;;;;2078191;28;20639;-54
2022/05/11 04:06:04;;;;;;;42.07;31.80;;;;;21.50;100063.00;;;;2077931;28;20747;-53
2022/05/11 04:07:05;;;;;;;38.00;29.37;;;;;21.50;100070.00;;;;2078889;28;20263;-53
2022/05/11 04:08:05;;;;;;;40.53;29.97;;;;;21.50;100065.00;;;;2079001;28;20694;-55
2022/05/11 04:09:06;;;;;;;38.97;29.40;;;;;21.50;100065.00;;;;2078753;28;20750;-54
2022/05/11 04:10:07;;;;;;;25.60;19.90;;;;;21.50;100063.00;;;;2078627;28;20587;-55
2022/05/11 04:11:07;;;;;;;39.92;29.70;;;;;21.50;100068.00;;;;2078755;28;20586;-55
2022/05/11 04:12:08;;;;;;;38.53;31.60;;;;;21.50;100065.00;;;;2078806;28;20221;-53
2022/05/11 04:13:08;;;;;;;36.03;26.17;;;;;21.50;100062.00;;;;2078559;28;20217;-53
2022/05/11 04:14:09;;;;;;;39.80;27.93;;;;;21.50;100069.00;;;;2078489;28;20548;-60
2022/05/11 04:15:10;;;;;;;48.70;36.00;;;;;21.50;100063.00;;;;2078588;28;20770;-55
2022/05/11 04:16:10;;;;;;;45.70;32.72;;;;;21.50;100064.00;;;;2078040;28;20217;-54
2022/05/11 04:17:11;;;;;;;48.40;35.17;;;;;21.50;100068.00;;;;2078696;28;20228;-54
2022/05/11 04:18:12;;;;;;;58.50;41.70;;;;;21.50;100076.00;;;;2069727;28;20336;-54
2022/05/11 04:19:12;;;;;;;42.80;32.10;;;;;21.50;100075.00;;;;2070026;28;20214;-54
2022/05/11 04:20:15;;;;;;;49.30;35.93;;;;;21.50;100073.00;;;;2076983;28;20716;-54
2022/05/11 04:21:15;;;;;;;59.45;43.05;;;;;21.50;100075.00;;;;2070582;28;20210;-53
2022/05/11 04:22:15;;;;;;;67.77;48.33;;;;;21.50;100073.00;;;;2070684;28;20574;-56
2022/05/11 04:23:17;;;;;;;52.83;40.30;;;;;21.50;100079.00;;;;2070442;28;20210;-55
2022/05/11 04:24:17;;;;;;;63.80;46.65;;;;;21.60;100077.00;;;;2069841;28;20217;-55
2022/05/11 04:25:18;;;;;;;58.87;44.17;;;;;21.50;100082.00;;;;2069493;28;20202;-52
2022/05/11 04:26:18;;;;;;;53.57;40.23;;;;;21.50;100078.00;;;;2070061;28;20297;-53
2022/05/11 04:27:18;;;;;;;56.97;43.90;;;;;21.50;100081.00;;;;2070559;28;20238;-53
2022/05/11 04:28:19;;;;;;;53.83;39.33;;;;;21.50;100074.00;;;;2069667;28;20206;-53
2022/05/11 04:29:19;;;;;;;65.20;46.80;;;;;21.50;100078.00;;;;2070599;28;20241;-54
2022/05/11 04:30:22;;;;;;;30.90;25.10;;;;;21.50;100080.00;;;;2070510;28;20214;-54
2022/05/11 04:31:22;;;;;;;41.30;30.48;;;;;21.50;100085.00;;;;2075550;28;20263;-54
2022/05/11 04:32:23;;;;;;;36.63;27.97;;;;;21.50;100083.00;;;;2078431;28;20209;-54
2022/05/11 04:33:23;;;;;;;43.00;32.20;;;;;21.50;100078.00;;;;2078926;28;20211;-54
2022/05/11 04:34:24;;;;;;;41.37;31.20;;;;;21.50;100067.00;;;;2078460;28;20202;-53
2022/05/11 04:35:30;;;;;;;40.80;29.70;;;;;21.50;100081.00;;;;2078171;28;20201;-55
2022/05/11 04:36:30;;;;;;;41.45;31.02;;;;;21.50;100070.00;;;;2078548;28;20452;-54
2022/05/11 04:37:30;;;;;;;42.33;32.60;;;;;21.60;100076.00;;;;2077982;28;20218;-53
2022/05/11 04:38:31;;;;;;;39.73;29.73;;;;;21.60;100075.00;;;;2074176;28;20293;-52
2022/05/11 04:39:31;;;;;;;42.43;31.70;;;;;21.60;100085.00;;;;2070544;28;20218;-54
2022/05/11 04:40:31;;;;;;;43.33;34.00;;;;;21.60;100077.00;;;;2067243;28;20217;-52
2022/05/11 04:41:32;;;;;;;22.80;17.50;;;;;21.40;100076.00;;;;2077932;28;20221;-56
2022/05/11 04:42:32;;;;;;;9.90;8.13;;;;;21.10;100075.00;;;;2071971;28;20536;-56
2022/05/11 04:43:33;;;;;;;7.90;6.83;;;;;20.60;100080.00;;;;2070520;28;20222;-56
2022/05/11 04:44:33;;;;;;;5.50;5.00;;;;;20.40;100075.00;;;;2069960;28;20221;-54
2022/05/11 04:45:37;;;;;;;4.27;3.83;;;;;20.40;100070.00;;;;2069741;28;20225;-55
2022/05/11 04:46:37;;;;;;;4.95;3.50;;;;;20.30;100068.00;;;;2070048;28;20244;-56
2022/05/11 04:47:38;;;;;;;5.20;3.50;;;;;20.20;100066.00;;;;2064919;28;20214;-55
2022/05/11 04:48:39;;;;;;;4.15;3.22;;;;;20.10;100064.00;;;;2070259;28;20632;-56
2022/05/11 04:49:39;;;;;;;3.90;3.50;;;;;20.10;100066.00;;;;2069946;28;20218;-57
2022/05/11 04:50:43;;;;;;;4.13;3.73;;;;;20.10;100063.00;;;;2070638;28;20256;-55
2022/05/11 04:51:44;;;;;;;4.28;3.30;;;;;20.00;100067.00;;;;2069949;28;20759;-56
2022/05/11 04:52:44;;;;;;;3.73;3.33;;;;;19.80;100057.00;;;;2069864;28;20225;-56
2022/05/11 04:53:45;;;;;;;6.20;3.17;;;;;19.90;100060.00;;;;2070134;28;20249;-59
2022/05/11 04:54:49;;;;;;;4.20;3.30;;;;;20.20;100053.00;;;;2070116;28;20238;-59
2022/05/11 04:55:50;;;;;;;7.90;3.30;;;;;20.40;100054.00;;;;2070073;28;20214;-51
2022/05/11 04:56:50;;;;;;;4.10;3.00;;;;;20.60;100051.00;;;;2070065;28;20326;-54
2022/05/11 04:57:50;;;;;;;4.40;3.50;;;;;20.70;100052.00;;;;2069774;28;20225;-55
2022/05/11 04:58:57;;;;;;;3.80;3.23;;;;;20.80;100059.00;;;;2086287;28;20205;-55
2022/05/11 04:59:57;;;;;;;5.07;2.80;;;;;20.90;100053.00;;;;2073259;28;20214;-55
2022/05/11 05:00:57;;;;;;;3.87;3.10;;;;;20.90;100069.00;;;;2077877;28;20679;-54
2022/05/11 05:02:02;;;;;;;3.83;2.90;;;;;21.00;100055.00;;;;2078173;28;20699;-55
2022/05/11 05:03:05;;;;;;;4.78;3.05;;;;;21.00;100062.00;;;;2076512;28;20217;-54
2022/05/11 05:04:05;;;;;;;3.97;3.10;;;;;21.00;100051.00;;;;2078305;28;20559;-55
2022/05/11 05:05:06;;;;;;;4.23;3.17;;;;;21.10;100051.00;;;;2077871;28;20293;-55